createdAt,value
2019-05-07T00:00:53.091Z,7.50
2019-05-07T00:03:22.034Z,7.50
2019-05-07T00:05:49.537Z,7.50
2019-05-07T00:08:18.708Z,7.40
2019-05-07T00:10:46.075Z,7.40
2019-05-07T00:13:13.428Z,7.40
2019-05-07T00:15:41.945Z,7.40
2019-05-07T00:18:09.460Z,7.40
2019-05-07T00:20:36.816Z,7.40
2019-05-07T00:23:04.153Z,7.40
2019-05-07T00:25:32.813Z,7.30
2019-05-07T00:28:02.569Z,7.30
2019-05-07T00:30:29.652Z,7.30
2019-05-07T00:32:57.010Z,7.30
2019-05-07T00:35:28.256Z,7.30
2019-05-07T00:38:02.442Z,7.30
2019-05-07T00:40:42.541Z,7.30
2019-05-07T00:43:22.666Z,7.30
2019-05-07T00:45:56.494Z,7.30
2019-05-07T00:48:23.450Z,7.20
2019-05-07T00:50:55.014Z,7.20
2019-05-07T00:53:23.633Z,7.20
2019-05-07T00:55:52.547Z,7.20
2019-05-07T00:58:23.380Z,7.20
2019-05-07T01:00:49.400Z,7.20
2019-05-07T01:03:16.752Z,7.20
2019-05-07T01:05:44.130Z,7.20
2019-05-07T01:08:13.203Z,7.20
2019-05-07T01:10:41.976Z,7.20
2019-05-07T01:13:09.553Z,7.10
2019-05-07T01:15:36.832Z,7.10
2019-05-07T01:18:04.238Z,7.00
2019-05-07T01:20:32.905Z,7.00
2019-05-07T01:23:02.554Z,6.80
2019-05-07T01:25:29.745Z,6.70
2019-05-07T01:27:57.840Z,6.70
2019-05-07T01:30:25.217Z,6.60
2019-05-07T01:32:57.610Z,6.60
2019-05-07T01:35:42.895Z,6.50
2019-05-07T01:38:12.217Z,6.50
2019-05-07T01:40:39.495Z,6.50
2019-05-07T01:43:06.875Z,6.50
2019-05-07T01:45:48.230Z,6.50
2019-05-07T01:48:05.712Z,6.50
2019-05-07T01:50:32.997Z,6.50
2019-05-07T01:53:00.256Z,6.50
2019-05-07T01:55:27.606Z,6.50
2019-05-07T01:57:54.928Z,6.50
2019-05-07T02:00:22.528Z,6.40
2019-05-07T02:02:55.292Z,6.40
2019-05-07T02:05:29.442Z,6.40
2019-05-07T02:07:59.852Z,6.30
2019-05-07T02:10:37.972Z,6.30
2019-05-07T02:13:05.324Z,6.20
2019-05-07T02:15:32.680Z,6.20
2019-05-07T02:18:01.932Z,6.30
2019-05-07T02:20:29.330Z,6.30
2019-05-07T02:22:56.745Z,6.40
2019-05-07T02:25:24.107Z,6.30
2019-05-07T02:27:52.833Z,6.30
2019-05-07T02:30:23.304Z,6.40
2019-05-07T02:32:49.601Z,6.40
2019-05-07T02:35:16.858Z,6.40
2019-05-07T02:38:09.233Z,6.40
2019-05-07T02:40:46.793Z,6.50
2019-05-07T02:43:14.274Z,6.40
2019-05-07T02:45:53.618Z,6.40
2019-05-07T02:48:23.908Z,6.40
2019-05-07T02:50:57.090Z,6.40
2019-05-07T02:53:39.508Z,6.40
2019-05-07T02:56:06.956Z,6.50
2019-05-07T02:58:34.289Z,6.50
2019-05-07T03:01:04.908Z,6.50
2019-05-07T03:03:33.239Z,6.50
2019-05-07T03:06:02.692Z,6.50
2019-05-07T03:08:29.509Z,6.50
2019-05-07T03:10:56.792Z,6.50
2019-05-07T03:13:24.225Z,6.50
2019-05-07T03:15:53.944Z,6.50
2019-05-07T03:18:23.289Z,6.50
2019-05-07T03:20:57.714Z,6.50
2019-05-07T03:23:29.835Z,6.60
2019-05-07T03:26:14.577Z,6.50
2019-05-07T03:28:49.011Z,6.60
2019-05-07T03:31:25.459Z,6.50
2019-05-07T03:33:59.142Z,6.50
2019-05-07T03:36:47.688Z,6.50
2019-05-07T03:39:14.404Z,6.50
2019-05-07T03:41:43.315Z,6.50
2019-05-07T03:44:39.148Z,6.50
2019-05-07T03:47:25.500Z,6.50
2019-05-07T03:49:53.674Z,6.40
2019-05-07T03:52:24.169Z,6.40
2019-05-07T03:54:50.287Z,6.40
2019-05-07T03:57:17.655Z,6.50
2019-05-07T03:59:45.037Z,6.50
2019-05-07T04:02:14.268Z,6.50
2019-05-07T04:04:43.204Z,6.50
2019-05-07T04:07:13.542Z,6.60
2019-05-07T04:09:40.047Z,6.60
2019-05-07T04:12:07.456Z,6.60
2019-05-07T04:14:34.911Z,6.60
2019-05-07T04:17:16.596Z,6.60
2019-05-07T04:19:32.810Z,6.70
2019-05-07T04:22:00.287Z,6.70
2019-05-07T04:24:37.074Z,6.70
2019-05-07T04:27:14.459Z,6.60
2019-05-07T04:29:42.846Z,6.60
2019-05-07T04:32:14.091Z,6.70
2019-05-07T04:34:48.856Z,6.70
2019-05-07T04:37:16.101Z,6.70
2019-05-07T04:39:53.683Z,6.70
2019-05-07T04:42:24.054Z,6.80
2019-05-07T04:44:53.725Z,6.80
2019-05-07T04:47:34.837Z,6.90
2019-05-07T04:49:48.997Z,6.90
2019-05-07T04:52:44.718Z,6.90
2019-05-07T04:55:13.884Z,7.00
2019-05-07T04:57:43.728Z,7.00
2019-05-07T05:00:13.424Z,7.00
2019-05-07T05:02:58.050Z,7.00
2019-05-07T05:05:25.727Z,7.10
2019-05-07T05:07:53.480Z,7.10
2019-05-07T05:10:23.164Z,7.20
2019-05-07T05:12:50.245Z,7.20
2019-05-07T05:15:17.565Z,7.30
2019-05-07T05:17:50.489Z,7.30
2019-05-07T05:20:15.253Z,7.40
2019-05-07T05:23:13.954Z,7.40
2019-05-07T05:25:43.157Z,7.50
2019-05-07T05:28:12.406Z,7.60
2019-05-07T05:30:46.041Z,7.70
2019-05-07T05:33:13.279Z,7.80
2019-05-07T05:35:42.862Z,7.80
2019-05-07T05:38:11.999Z,7.90
2019-05-07T05:40:39.128Z,7.90
2019-05-07T05:43:22.866Z,8.00
2019-05-07T05:45:53.021Z,8.00
2019-05-07T05:48:22.233Z,8.10
2019-05-07T05:50:56.487Z,8.10
2019-05-07T05:53:46.729Z,8.10
2019-05-07T05:56:23.393Z,8.20
2019-05-07T05:59:12.078Z,8.20
2019-05-07T06:02:06.607Z,8.20
2019-05-07T06:04:43.989Z,8.10
2019-05-07T06:07:22.556Z,8.20
2019-05-07T06:10:07.477Z,8.20
2019-05-07T06:12:42.966Z,8.30
2019-05-07T06:15:22.170Z,8.30
2019-05-07T06:18:17.969Z,8.30
2019-05-07T06:20:56.515Z,8.30
2019-05-07T06:23:33.183Z,8.30
2019-05-07T06:26:04.825Z,8.40
2019-05-07T06:28:29.864Z,8.40
2019-05-07T06:30:57.182Z,8.50
2019-05-07T06:33:24.464Z,8.60
2019-05-07T06:35:52.174Z,8.60
2019-05-07T06:38:21.795Z,8.70
2019-05-07T06:41:16.798Z,8.80
2019-05-07T06:43:47.906Z,8.80
2019-05-07T06:46:15.236Z,9.00
2019-05-07T06:48:45.944Z,9.00
2019-05-07T06:51:12.556Z,9.10
2019-05-07T06:53:42.117Z,9.20
2019-05-07T06:56:09.290Z,9.30
2019-05-07T06:58:56.184Z,9.50
2019-05-07T07:01:35.830Z,9.60
2019-05-07T07:04:08.544Z,9.70
2019-05-07T07:06:53.966Z,9.70
2019-05-07T07:09:28.091Z,9.70
2019-05-07T07:11:58.478Z,9.80
2019-05-07T07:14:25.829Z,9.90
2019-05-07T07:16:53.184Z,10.00
2019-05-07T07:19:20.512Z,10.20
2019-05-07T07:21:47.846Z,10.50
2019-05-07T07:24:15.212Z,10.80
2019-05-07T07:26:42.600Z,10.90
2019-05-07T07:29:12.650Z,10.90
2019-05-07T07:31:44.711Z,10.90
2019-05-07T07:34:12.981Z,10.90
2019-05-07T07:37:01.794Z,11.00
2019-05-07T07:39:17.421Z,11.20
2019-05-07T07:41:56.621Z,11.20
2019-05-07T07:44:24.014Z,11.20
2019-05-07T07:46:53.150Z,11.30
2019-05-07T07:49:22.213Z,11.40
2019-05-07T07:51:49.716Z,11.50
2019-05-07T07:54:17.205Z,11.50
2019-05-07T07:57:04.072Z,11.50
2019-05-07T07:59:49.578Z,11.30
2019-05-07T08:02:22.966Z,11.20
2019-05-07T08:04:52.645Z,11.30
2019-05-07T08:07:19.747Z,11.40
2019-05-07T08:09:47.155Z,11.30
2019-05-07T08:12:14.471Z,11.20
2019-05-07T08:14:42.685Z,11.30
2019-05-07T08:17:12.788Z,11.60
2019-05-07T08:19:39.412Z,11.70
2019-05-07T08:22:06.805Z,11.70
2019-05-07T08:24:34.162Z,11.50
2019-05-07T08:27:02.582Z,11.40
2019-05-07T08:29:32.299Z,11.40
2019-05-07T08:32:22.388Z,11.40
2019-05-07T08:34:58.074Z,11.70
2019-05-07T08:37:25.395Z,12.00
2019-05-07T08:39:52.755Z,12.20
2019-05-07T08:42:20.088Z,12.30
2019-05-07T08:44:54.115Z,12.30
2019-05-07T08:47:33.798Z,12.30
2019-05-07T08:50:02.887Z,12.50
2019-05-07T08:52:32.572Z,12.90
2019-05-07T08:55:02.012Z,13.20
2019-05-07T08:57:28.983Z,13.00
2019-05-07T09:00:01.037Z,12.90
2019-05-07T09:02:25.457Z,13.00
2019-05-07T09:04:52.845Z,13.10
2019-05-07T09:07:21.924Z,13.10
2019-05-07T09:09:52.059Z,13.20
2019-05-07T09:12:18.761Z,13.50
2019-05-07T09:14:46.145Z,13.60
2019-05-07T09:17:13.500Z,13.80
2019-05-07T09:19:50.807Z,14.10
2019-05-07T09:22:12.517Z,14.30
2019-05-07T09:24:39.321Z,15.00
2019-05-07T09:27:26.245Z,15.80
2019-05-07T09:30:08.954Z,17.30
2019-05-07T09:32:44.281Z,18.40
2019-05-07T09:35:14.855Z,18.00
2019-05-07T09:37:42.177Z,17.30
2019-05-07T09:40:09.904Z,16.90
2019-05-07T09:42:37.270Z,15.90
2019-05-07T09:45:05.736Z,15.20
2019-05-07T09:47:32.944Z,14.80
2019-05-07T09:50:04.772Z,14.40
2019-05-07T09:52:29.422Z,14.10
2019-05-07T09:54:56.858Z,13.80
2019-05-07T09:57:30.454Z,13.60
2019-05-07T09:59:53.586Z,13.50
2019-05-07T10:02:22.698Z,13.60
2019-05-07T10:04:52.370Z,13.80
2019-05-07T10:07:19.379Z,13.70
2019-05-07T10:09:46.982Z,13.60
2019-05-07T10:12:37.494Z,13.50
2019-05-07T10:15:05.402Z,13.30
2019-05-07T10:17:46.607Z,13.10
2019-05-07T10:20:21.719Z,13.20
2019-05-07T10:22:43.576Z,13.10
2019-05-07T10:25:12.179Z,13.20
2019-05-07T10:27:41.674Z,13.10
2019-05-07T10:30:09.338Z,13.20
2019-05-07T10:32:36.780Z,13.90
2019-05-07T10:35:04.416Z,14.40
2019-05-07T10:37:31.988Z,14.50
2019-05-07T10:39:59.697Z,14.50
2019-05-07T10:42:27.141Z,14.60
2019-05-07T10:45:05.428Z,14.70
2019-05-07T10:47:52.291Z,15.00
2019-05-07T10:50:35.256Z,15.00
2019-05-07T10:52:53.485Z,15.50
2019-05-07T10:55:22.311Z,16.20
2019-05-07T10:57:49.809Z,16.80
2019-05-07T11:00:22.470Z,17.00
2019-05-07T11:02:49.485Z,17.10
2019-05-07T11:05:16.934Z,17.60
2019-05-07T11:07:44.179Z,17.40
2019-05-07T11:10:12.350Z,17.00
2019-05-07T11:12:39.866Z,16.60
2019-05-07T11:15:07.408Z,16.20
2019-05-07T11:17:57.292Z,15.90
2019-05-07T11:20:24.754Z,15.90
2019-05-07T11:22:52.364Z,15.70
2019-05-07T11:25:19.714Z,15.50
2019-05-07T11:27:47.099Z,15.20
2019-05-07T11:30:15.282Z,15.10
2019-05-07T11:32:45.880Z,15.00
2019-05-07T11:35:14.689Z,14.70
2019-05-07T11:37:44.275Z,14.30
2019-05-07T11:40:19.897Z,13.80
2019-05-07T11:43:05.806Z,13.60
2019-05-07T11:45:45.375Z,13.50
2019-05-07T11:48:13.304Z,13.40
2019-05-07T11:51:01.495Z,13.40
2019-05-07T11:53:22.734Z,13.40
2019-05-07T11:55:52.225Z,13.40
2019-05-07T11:58:19.314Z,13.40
2019-05-07T12:00:51.976Z,13.50
2019-05-07T12:03:19.310Z,13.60
2019-05-07T12:05:46.783Z,13.70
2019-05-07T12:08:14.184Z,13.90
2019-05-07T12:10:41.452Z,14.10
2019-05-07T12:13:08.783Z,14.30
2019-05-07T12:15:36.698Z,14.50
2019-05-07T12:18:06.897Z,14.70
2019-05-07T12:20:34.246Z,15.00
2019-05-07T12:23:02.914Z,15.20
2019-05-07T12:25:32.011Z,15.40
2019-05-07T12:27:59.638Z,15.50
2019-05-07T12:30:37.693Z,15.70
2019-05-07T12:33:12.734Z,15.80
2019-05-07T12:35:41.905Z,15.80
2019-05-07T12:38:12.686Z,15.70
2019-05-07T12:40:41.778Z,15.60
2019-05-07T12:43:10.550Z,15.40
2019-05-07T12:45:38.119Z,15.10
2019-05-07T12:48:05.593Z,15.00
2019-05-07T12:50:32.989Z,14.90
2019-05-07T12:53:06.793Z,14.80
2019-05-07T12:55:42.736Z,14.90
2019-05-07T12:58:12.474Z,15.20
2019-05-07T13:00:57.414Z,15.60
2019-05-07T13:03:32.908Z,15.80
2019-05-07T13:06:02.365Z,16.00
2019-05-07T13:08:29.401Z,16.00
2019-05-07T13:10:57.976Z,16.10
2019-05-07T13:13:25.531Z,16.00
2019-05-07T13:15:52.901Z,15.90
2019-05-07T13:18:22.497Z,16.00
2019-05-07T13:20:49.455Z,16.10
2019-05-07T13:23:16.812Z,16.10
2019-05-07T13:25:44.245Z,15.80
2019-05-07T13:28:11.926Z,15.30
2019-05-07T13:30:39.325Z,15.10
2019-05-07T13:33:06.699Z,15.20
2019-05-07T13:35:34.733Z,15.40
2019-05-07T13:38:23.771Z,15.30
2019-05-07T13:41:09.032Z,14.90
2019-05-07T13:43:53.968Z,14.60
2019-05-07T13:46:22.064Z,14.60
2019-05-07T13:48:49.773Z,14.70
2019-05-07T13:51:17.203Z,14.90
2019-05-07T13:53:44.594Z,15.00
2019-05-07T13:56:12.814Z,15.00
2019-05-07T13:58:40.279Z,15.00
2019-05-07T14:01:32.968Z,15.10
2019-05-07T14:04:03.809Z,15.20
2019-05-07T14:06:39.099Z,15.30
2019-05-07T14:09:11.107Z,15.40
2019-05-07T14:11:38.653Z,15.50
2019-05-07T14:14:05.984Z,15.60
2019-05-07T14:16:33.320Z,15.70
2019-05-07T14:19:01.929Z,15.80
2019-05-07T14:21:29.975Z,15.90
2019-05-07T14:23:57.387Z,15.90
2019-05-07T14:26:24.631Z,15.90
2019-05-07T14:28:52.531Z,15.60
2019-05-07T14:31:19.927Z,15.40
2019-05-07T14:33:54.158Z,15.00
2019-05-07T14:36:26.357Z,14.80
2019-05-07T14:38:53.798Z,14.50
2019-05-07T14:41:22.906Z,14.40
2019-05-07T14:44:15.777Z,14.40
2019-05-07T14:46:50.361Z,14.60
2019-05-07T14:49:12.626Z,14.60
2019-05-07T14:51:39.894Z,14.50
2019-05-07T14:54:07.289Z,14.50
2019-05-07T14:56:34.857Z,14.30
2019-05-07T14:59:02.358Z,14.00
2019-05-07T15:01:30.257Z,13.90
2019-05-07T15:03:57.685Z,13.90
2019-05-07T15:06:25.065Z,13.70
2019-05-07T15:08:52.421Z,13.60
2019-05-07T15:11:19.894Z,13.40
2019-05-07T15:13:47.441Z,13.40
2019-05-07T15:16:14.780Z,13.50
2019-05-07T15:19:00.419Z,13.60
2019-05-07T15:21:27.773Z,13.80
2019-05-07T15:23:56.077Z,13.90
2019-05-07T15:26:23.645Z,14.00
2019-05-07T15:29:02.237Z,14.00
2019-05-07T15:32:00.748Z,14.00
2019-05-07T15:34:28.101Z,14.20
2019-05-07T15:36:55.429Z,14.40
2019-05-07T15:39:22.781Z,14.60
2019-05-07T15:41:51.802Z,14.70
2019-05-07T15:44:19.348Z,14.70
2019-05-07T15:46:46.661Z,14.60
2019-05-07T15:49:14.065Z,14.40
2019-05-07T15:51:41.891Z,14.30
2019-05-07T15:54:09.368Z,14.10
2019-05-07T15:56:36.821Z,14.00
2019-05-07T15:59:04.153Z,14.00
2019-05-07T16:01:31.571Z,14.00
2019-05-07T16:03:58.944Z,14.10
2019-05-07T16:06:26.265Z,14.20
2019-05-07T16:08:56.892Z,14.30
2019-05-07T16:11:24.275Z,14.20
2019-05-07T16:14:09.311Z,14.00
2019-05-07T16:16:39.326Z,13.90
2019-05-07T16:19:12.483Z,13.80
2019-05-07T16:21:42.372Z,13.80
2019-05-07T16:24:09.248Z,14.10
2019-05-07T16:26:36.585Z,14.30
2019-05-07T16:29:04.724Z,14.50
2019-05-07T16:31:33.256Z,14.60
2019-05-07T16:34:02.603Z,14.50
2019-05-07T16:36:32.635Z,14.40
2019-05-07T16:38:59.375Z,14.30
2019-05-07T16:41:26.659Z,14.30
2019-05-07T16:43:53.992Z,14.20
2019-05-07T16:46:22.445Z,14.30
2019-05-07T16:48:49.920Z,14.40
2019-05-07T16:51:17.295Z,14.40
2019-05-07T16:53:44.583Z,14.50
2019-05-07T16:56:12.463Z,14.50
2019-05-07T16:58:43.797Z,14.50
2019-05-07T17:01:11.403Z,14.50
2019-05-07T17:03:45.637Z,14.50
2019-05-07T17:06:13.021Z,14.40
2019-05-07T17:09:02.628Z,14.30
2019-05-07T17:11:31.962Z,14.20
2019-05-07T17:13:59.449Z,14.30
2019-05-07T17:16:26.808Z,14.30
2019-05-07T17:18:54.099Z,14.30
2019-05-07T17:21:21.882Z,14.00
2019-05-07T17:23:49.352Z,13.80
2019-05-07T17:26:16.739Z,13.60
2019-05-07T17:28:44.202Z,13.50
2019-05-07T17:31:12.383Z,13.40
2019-05-07T17:33:39.857Z,13.20
2019-05-07T17:36:07.104Z,13.10
2019-05-07T17:38:34.457Z,13.00
2019-05-07T17:41:12.571Z,13.00
2019-05-07T17:43:32.478Z,12.90
2019-05-07T17:46:00.019Z,12.90
2019-05-07T17:48:27.437Z,12.80
2019-05-07T17:51:22.828Z,12.80
2019-05-07T17:53:57.622Z,12.80
2019-05-07T17:56:21.901Z,12.70
2019-05-07T17:58:49.173Z,12.70
2019-05-07T18:01:17.599Z,12.70
2019-05-07T18:03:44.953Z,12.60
2019-05-07T18:06:12.630Z,12.60
2019-05-07T18:08:40.051Z,12.50
2019-05-07T18:11:20.142Z,12.40
2019-05-07T18:13:36.557Z,12.40
2019-05-07T18:16:17.213Z,12.30
2019-05-07T18:18:44.655Z,12.30
2019-05-07T18:21:12.619Z,12.30
2019-05-07T18:23:40.714Z,12.20
2019-05-07T18:26:08.127Z,12.20
2019-05-07T18:28:35.515Z,12.20
2019-05-07T18:31:02.897Z,12.10
2019-05-07T18:33:37.096Z,12.10
2019-05-07T18:36:04.625Z,12.10
2019-05-07T18:38:32.917Z,12.10
2019-05-07T18:41:02.678Z,12.00
2019-05-07T18:43:29.683Z,12.00
2019-05-07T18:45:57.025Z,11.90
2019-05-07T18:48:24.397Z,11.90
2019-05-07T18:50:52.238Z,11.80
2019-05-07T18:53:19.777Z,11.80
2019-05-07T18:55:47.040Z,11.80
2019-05-07T18:58:14.452Z,11.70
2019-05-07T19:00:46.095Z,11.70
2019-05-07T19:03:13.478Z,11.70
2019-05-07T19:05:42.415Z,11.70
2019-05-07T19:08:12.379Z,11.60
2019-05-07T19:10:39.287Z,11.60
2019-05-07T19:13:06.633Z,11.50
2019-05-07T19:15:34.003Z,11.40
2019-05-07T19:18:02.683Z,11.40
2019-05-07T19:20:32.451Z,11.40
2019-05-07T19:22:59.505Z,11.30
2019-05-07T19:25:27.063Z,11.30
2019-05-07T19:27:54.344Z,11.30
2019-05-07T19:30:21.915Z,11.30
2019-05-07T19:32:49.385Z,11.30
2019-05-07T19:35:16.936Z,11.30
2019-05-07T19:37:44.331Z,11.30
2019-05-07T19:40:12.591Z,11.20
2019-05-07T19:42:42.632Z,11.20
2019-05-07T19:45:09.619Z,11.10
2019-05-07T19:47:37.010Z,11.10
2019-05-07T19:50:04.588Z,11.00
2019-05-07T19:52:33.169Z,11.00
2019-05-07T19:55:04.152Z,10.90
2019-05-07T19:57:34.247Z,10.90
2019-05-07T20:00:08.755Z,10.80
2019-05-07T20:02:43.095Z,10.80
2019-05-07T20:05:12.155Z,10.70
2019-05-07T20:07:39.547Z,10.70
2019-05-07T20:10:08.280Z,10.70
2019-05-07T20:12:35.723Z,10.70
2019-05-07T20:15:03.689Z,10.70
2019-05-07T20:17:33.463Z,10.60
2019-05-07T20:20:00.255Z,10.60
2019-05-07T20:22:27.723Z,10.60
2019-05-07T20:24:55.141Z,10.60
2019-05-07T20:27:23.219Z,10.60
2019-05-07T20:29:52.237Z,10.50
2019-05-07T20:32:22.575Z,10.50
2019-05-07T20:34:51.970Z,10.50
2019-05-07T20:37:19.437Z,10.40
2019-05-07T20:39:47.037Z,10.40
2019-05-07T20:42:14.497Z,10.40
2019-05-07T20:44:42.580Z,10.40
2019-05-07T20:47:12.538Z,10.30
2019-05-07T20:49:39.839Z,10.30
2019-05-07T20:52:07.241Z,10.20
2019-05-07T20:54:45.857Z,10.20
2019-05-07T20:57:22.576Z,10.20
2019-05-07T20:59:50.027Z,10.10
2019-05-07T21:02:17.378Z,10.10
2019-05-07T21:04:44.747Z,10.10
2019-05-07T21:07:12.075Z,10.10
2019-05-07T21:09:39.586Z,10.00
2019-05-07T21:12:06.980Z,10.00
2019-05-07T21:14:34.469Z,10.00
2019-05-07T21:17:01.830Z,9.90
2019-05-07T21:19:29.354Z,9.90
2019-05-07T21:21:56.708Z,9.90
2019-05-07T21:24:24.033Z,9.90
2019-05-07T21:26:53.132Z,9.80
2019-05-07T21:29:20.661Z,9.80
2019-05-07T21:31:48.032Z,9.80
2019-05-07T21:34:15.381Z,9.70
2019-05-07T21:36:43.339Z,9.70
2019-05-07T21:39:13.010Z,9.70
2019-05-07T21:41:42.395Z,9.70
2019-05-07T21:44:09.498Z,9.70
2019-05-07T21:46:36.735Z,9.70
2019-05-07T21:49:04.133Z,9.60
2019-05-07T21:51:31.510Z,9.60
2019-05-07T21:54:18.362Z,9.60
2019-05-07T21:57:14.300Z,9.50
2019-05-07T21:59:43.198Z,9.50
2019-05-07T22:02:18.575Z,9.40
2019-05-07T22:04:46.230Z,9.40
2019-05-07T22:07:13.647Z,9.30
2019-05-07T22:09:41.096Z,9.30
2019-05-07T22:12:08.341Z,9.20
2019-05-07T22:14:35.545Z,9.20
2019-05-07T22:17:03.029Z,9.10
2019-05-07T22:19:33.599Z,9.10
2019-05-07T22:21:59.543Z,9.00
2019-05-07T22:24:26.891Z,9.00
2019-05-07T22:26:54.230Z,9.00
2019-05-07T22:29:22.713Z,9.00
2019-05-07T22:32:13.577Z,8.90
2019-05-07T22:35:03.032Z,8.90
2019-05-07T22:37:31.847Z,8.90
2019-05-07T22:39:59.676Z,8.90
2019-05-07T22:42:27.013Z,8.80
2019-05-07T22:44:54.285Z,8.80
2019-05-07T22:47:22.742Z,8.80
2019-05-07T22:49:50.368Z,8.80
2019-05-07T22:52:18.511Z,8.70
2019-05-07T22:54:45.967Z,8.70
2019-05-07T22:57:44.747Z,8.70
2019-05-07T23:00:18.965Z,8.60
2019-05-07T23:02:46.305Z,8.60
2019-05-07T23:05:13.657Z,8.60
2019-05-07T23:07:42.038Z,8.50
2019-05-07T23:10:11.892Z,8.50
2019-05-07T23:12:39.247Z,8.50
2019-05-07T23:15:06.759Z,8.50
2019-05-07T23:17:34.067Z,8.40
2019-05-07T23:20:01.449Z,8.40
2019-05-07T23:22:28.781Z,8.40
2019-05-07T23:24:56.102Z,8.30
2019-05-07T23:27:23.366Z,8.30
2019-05-07T23:29:52.493Z,8.30
2019-05-07T23:32:22.111Z,8.30
2019-05-07T23:34:49.065Z,8.20
2019-05-07T23:37:16.415Z,8.20
2019-05-07T23:39:45.598Z,8.20
2019-05-07T23:42:16.813Z,8.20
2019-05-07T23:44:44.081Z,8.10
2019-05-07T23:47:12.168Z,8.10
2019-05-07T23:49:39.647Z,8.10
2019-05-07T23:52:07.002Z,8.10
2019-05-07T23:54:34.249Z,8.10
2019-05-07T23:57:08.636Z,8.10
2019-05-07T23:59:32.878Z,8.10
